Main page
METAR-TAF:

METAR-TAF

Airports :

Valladolid Airport

Valladolid, Spain

latitude: 41-43N, longitude: 004-51W, elevation: 849 m

Current weather observation

The report was made 27 minutes ago, at 23:00 UTC
Wind 13 kt from the East, varying between Northeast and East/Southeast
Temperature 22°C
Humidity 57%
Pressure 1022 hPa
Visibility 10 km or more
no clouds below 1500 m and no cumulonimbus

METAR: LEVD 052300Z AUTO 08013KT 050V110 CAVOK 22/13 Q1022

Time: 01:27 (23:27 UTC)

Forecast

The report was made 6 hours and 27 minutes ago, at 17:00 UTC
Forecast valid from 05 at 18 UTC to 06 at 18 UTC
Wind 10 kt from the Northeast
Visibility 10 km or more
no clouds below 1500 m and no cumulonimbus
Becoming
from 05 at 19 UTC to 05 at 20 UTC
Wind 14 kt from the Northeast
Probability 40% :
Temporary
from 05 at 20 UTC to 06 at 18 UTC
Wind 15 kt from the Northeast with gusts up to 25 kt

TAF: LEVD 051700Z 0518/0618 04010KT CAVOK TX33/0616Z TN12/0605Z BECMG 0519/0520 05014KT PROB40 TEMPO 0520/0618 05015G25KT

Weather observations and forecasts of more than 4000 airports (METAR and TAF reports).

The available stations are represented by yellow and red dots on the map.

Hover mouse over dot to see the name of the station.

Then click to see weather observations and forecasts.

To change the map : click on the green buttons with a black cross to zoom in, on the green button with a dash to zoom out, or on the green arrows for adjacent maps.


METAR-TAF: